createdAt,value
2022-09-06T00:01:50.800Z,4.55
2022-09-06T00:04:40.027Z,4.55
2022-09-06T00:07:29.572Z,3.88
2022-09-06T00:10:18.938Z,4.20
2022-09-06T00:13:11.803Z,4.25
2022-09-06T00:18:57.325Z,3.78
2022-09-06T00:21:46.449Z,3.78
2022-09-06T00:24:37.165Z,4.30
2022-09-06T00:27:26.446Z,3.78
2022-09-06T00:30:17.234Z,4.00
2022-09-06T00:33:06.484Z,4.25
2022-09-06T00:36:01.392Z,4.30
2022-09-06T00:38:50.792Z,3.58
2022-09-06T00:41:40.121Z,4.00
2022-09-06T00:44:29.457Z,4.47
2022-09-06T00:47:20.777Z,4.50
2022-09-06T00:50:15.834Z,3.70
2022-09-06T00:53:05.582Z,4.10
2022-09-06T00:55:55.128Z,3.45
2022-09-06T00:58:44.909Z,4.15
2022-09-06T01:01:34.221Z,3.88
2022-09-06T01:04:26.118Z,3.50
2022-09-06T01:07:33.652Z,3.72
2022-09-06T01:10:46.885Z,3.92
2022-09-06T01:13:49.817Z,4.18
2022-09-06T01:16:47.132Z,3.97
2022-09-06T01:20:23.157Z,4.13
2022-09-06T01:24:28.875Z,4.10
2022-09-06T01:27:51.689Z,4.00
2022-09-06T01:30:52.489Z,3.90
2022-09-06T01:33:51.852Z,4.03
2022-09-06T01:37:08.858Z,3.55
2022-09-06T01:39:59.427Z,3.65
2022-09-06T01:42:53.192Z,4.60
2022-09-06T01:45:58.194Z,3.70
2022-09-06T01:49:14.681Z,4.25
2022-09-06T01:52:15.557Z,4.50
2022-09-06T01:55:23.242Z,4.45
2022-09-06T01:58:40.757Z,4.68
2022-09-06T02:01:39.869Z,3.70
2022-09-06T02:04:38.701Z,4.40
2022-09-06T02:07:31.787Z,3.45
2022-09-06T02:10:27.964Z,4.75
2022-09-06T02:13:23.172Z,4.43
2022-09-06T02:16:21.372Z,3.53
2022-09-06T02:19:19.246Z,4.43
2022-09-06T02:22:14.087Z,4.32
2022-09-06T02:25:08.480Z,4.22
2022-09-06T02:27:58.216Z,3.45
2022-09-06T02:30:57.086Z,4.43
2022-09-06T02:33:49.079Z,4.25
2022-09-06T02:36:39.435Z,4.40
2022-09-06T02:39:28.696Z,4.35
2022-09-06T02:42:18.504Z,4.38
2022-09-06T02:45:08.929Z,4.03
2022-09-06T02:47:59.410Z,4.57
2022-09-06T02:50:48.541Z,3.97
2022-09-06T02:53:37.844Z,4.50
2022-09-06T02:56:26.977Z,4.78
2022-09-06T02:59:16.206Z,4.60
2022-09-06T03:02:05.378Z,5.03
2022-09-06T03:04:55.906Z,4.38
2022-09-06T03:07:45.202Z,4.40
2022-09-06T03:10:34.331Z,4.20
2022-09-06T03:13:24.934Z,5.13
2022-09-06T03:16:14.380Z,5.18
2022-09-06T03:19:03.608Z,4.43
2022-09-06T03:21:54.317Z,4.53
2022-09-06T03:24:43.544Z,4.93
2022-09-06T03:27:34.127Z,4.88
2022-09-06T03:30:23.278Z,4.85
2022-09-06T03:33:12.859Z,5.13
2022-09-06T03:36:04.061Z,5.30
2022-09-06T03:38:54.979Z,4.45
2022-09-06T03:41:44.194Z,5.18
2022-09-06T03:44:33.988Z,5.72
2022-09-06T03:47:23.308Z,4.82
2022-09-06T03:50:13.038Z,4.68
2022-09-06T03:53:02.272Z,5.57
2022-09-06T03:55:57.552Z,4.53
2022-09-06T03:58:47.184Z,5.20
2022-09-06T04:01:36.467Z,5.95
2022-09-06T04:04:26.045Z,5.32
2022-09-06T04:07:15.253Z,5.47
2022-09-06T04:10:04.948Z,5.97
2022-09-06T04:12:55.711Z,4.75
2022-09-06T04:15:47.754Z,4.95
2022-09-06T04:18:37.257Z,5.70
2022-09-06T04:21:26.562Z,4.88
2022-09-06T04:24:15.797Z,5.63
2022-09-06T04:27:05.418Z,4.47
2022-09-06T04:29:56.616Z,4.70
2022-09-06T04:32:45.774Z,5.68
2022-09-06T04:35:34.879Z,5.85
2022-09-06T04:38:25.507Z,6.82
2022-09-06T04:41:18.812Z,6.45
2022-09-06T04:44:07.924Z,4.85
2022-09-06T04:47:09.880Z,7.30
2022-09-06T04:49:59.026Z,8.10
2022-09-06T04:52:48.132Z,7.70
2022-09-06T04:55:37.753Z,7.65
2022-09-06T04:58:27.081Z,6.68
2022-09-06T05:01:16.498Z,7.43
2022-09-06T05:04:07.007Z,6.50
2022-09-06T05:07:03.491Z,6.22
2022-09-06T05:09:52.800Z,7.28
2022-09-06T05:12:44.379Z,8.27
2022-09-06T05:15:33.685Z,7.50
2022-09-06T05:18:22.769Z,7.05
2022-09-06T05:21:13.432Z,6.57
2022-09-06T05:24:02.831Z,7.05
2022-09-06T05:26:51.994Z,6.93
2022-09-06T05:29:41.180Z,10.10
2022-09-06T05:32:30.303Z,10.32
2022-09-06T05:35:19.433Z,10.60
2022-09-06T05:38:09.923Z,10.30
2022-09-06T05:40:59.116Z,9.88
2022-09-06T05:43:48.725Z,10.80
2022-09-06T05:46:45.114Z,11.07
2022-09-06T05:49:34.307Z,10.77
2022-09-06T05:52:23.459Z,10.57
2022-09-06T05:55:14.081Z,11.75
2022-09-06T05:58:03.262Z,10.88
2022-09-06T06:00:52.427Z,11.27
2022-09-06T06:03:41.719Z,10.20
2022-09-06T06:06:33.608Z,11.30
2022-09-06T06:09:22.848Z,9.90
2022-09-06T06:12:13.497Z,11.23
2022-09-06T06:15:02.744Z,11.82
2022-09-06T06:17:52.018Z,10.48
2022-09-06T06:20:41.296Z,11.43
2022-09-06T06:23:30.449Z,10.60
2022-09-06T06:26:20.262Z,11.82
2022-09-06T06:29:10.930Z,10.23
2022-09-06T06:32:00.224Z,11.00
2022-09-06T06:34:49.616Z,11.30
2022-09-06T06:37:38.855Z,11.13
2022-09-06T06:40:28.045Z,12.07
2022-09-06T06:43:17.352Z,12.90
2022-09-06T06:46:11.287Z,12.75
2022-09-06T06:49:00.785Z,11.38
2022-09-06T06:51:49.945Z,10.55
2022-09-06T06:54:39.461Z,11.55
2022-09-06T06:57:28.869Z,13.27
2022-09-06T07:00:18.614Z,12.32
2022-09-06T07:03:09.739Z,11.95
2022-09-06T07:06:14.370Z,12.20
2022-09-06T07:09:03.692Z,12.15
2022-09-06T07:11:52.924Z,12.40
2022-09-06T07:14:42.156Z,12.18
2022-09-06T07:17:31.446Z,12.25
2022-09-06T07:20:22.526Z,10.80
2022-09-06T07:26:24.473Z,10.95
2022-09-06T07:29:13.678Z,11.18
2022-09-06T07:34:59.260Z,10.57
2022-09-06T07:37:56.624Z,11.45
2022-09-06T07:40:54.981Z,10.43
2022-09-06T07:43:44.688Z,10.02
2022-09-06T07:46:34.046Z,9.93
2022-09-06T07:49:23.377Z,10.68
2022-09-06T07:55:23.390Z,10.18
2022-09-06T07:58:12.593Z,8.75
2022-09-06T08:01:28.286Z,10.18
2022-09-06T08:04:17.560Z,10.05
2022-09-06T08:10:18.433Z,10.05
2022-09-06T08:13:09.353Z,9.18
2022-09-06T08:16:00.787Z,9.13
2022-09-06T08:18:53.492Z,9.18
2022-09-06T08:21:42.918Z,8.00
2022-09-06T08:24:35.649Z,9.73
2022-09-06T08:27:25.313Z,10.00
2022-09-06T08:30:16.121Z,9.93
2022-09-06T08:33:05.506Z,10.70
2022-09-06T08:35:58.615Z,8.90
2022-09-06T08:38:47.844Z,9.73
2022-09-06T08:41:49.829Z,9.77
2022-09-06T08:44:59.990Z,9.27
2022-09-06T08:47:52.449Z,8.68
2022-09-06T08:53:38.277Z,9.57
2022-09-06T08:56:35.905Z,8.82
2022-09-06T08:59:25.228Z,9.82
2022-09-06T09:02:19.106Z,9.25
2022-09-06T09:05:24.306Z,8.98
2022-09-06T09:08:25.594Z,8.90
2022-09-06T09:11:20.003Z,8.82
2022-09-06T09:14:18.454Z,9.05
2022-09-06T09:17:20.344Z,7.97
2022-09-06T09:20:11.636Z,7.13
2022-09-06T09:23:00.813Z,7.78
2022-09-06T09:25:53.490Z,8.57
2022-09-06T09:29:04.923Z,7.70
2022-09-06T09:31:56.545Z,7.32
2022-09-06T09:34:45.892Z,8.65
2022-09-06T09:37:55.393Z,8.13
2022-09-06T09:40:53.707Z,7.93
2022-09-06T09:44:01.090Z,7.93
2022-09-06T09:46:52.983Z,8.77
2022-09-06T09:49:42.165Z,8.25
2022-09-06T09:52:33.017Z,6.90
2022-09-06T09:55:27.048Z,6.85
2022-09-06T09:58:31.557Z,6.65
2022-09-06T10:01:27.208Z,7.22
2022-09-06T10:07:34.814Z,6.85
2022-09-06T10:10:28.163Z,6.63
2022-09-06T10:13:23.002Z,5.88
2022-09-06T10:16:12.388Z,7.13
2022-09-06T10:19:01.810Z,6.35
2022-09-06T10:21:57.700Z,6.70
2022-09-06T10:25:09.321Z,7.18
2022-09-06T10:28:34.402Z,5.25
2022-09-06T10:32:02.247Z,5.03
2022-09-06T10:35:11.365Z,5.32
2022-09-06T10:38:27.599Z,5.20
2022-09-06T10:41:39.185Z,4.57
2022-09-06T10:44:51.908Z,4.38
2022-09-06T10:47:56.097Z,4.47
2022-09-06T10:50:52.989Z,3.90
2022-09-06T10:53:49.539Z,3.63
2022-09-06T10:56:44.596Z,3.30
2022-09-06T10:59:40.341Z,3.80
2022-09-06T11:02:40.572Z,3.35
2022-09-06T11:08:53.458Z,2.95
2022-09-06T11:11:51.935Z,3.35
2022-09-06T11:14:43.331Z,2.60
2022-09-06T11:17:41.155Z,3.13
2022-09-06T11:20:40.584Z,3.40
2022-09-06T11:23:52.861Z,2.83
2022-09-06T11:26:56.960Z,3.20
2022-09-06T11:29:56.288Z,2.72
2022-09-06T11:32:50.058Z,2.95
2022-09-06T11:35:43.347Z,4.18
2022-09-06T11:38:32.548Z,4.57
2022-09-06T11:41:21.951Z,3.80
2022-09-06T11:44:12.334Z,3.65
2022-09-06T11:47:07.673Z,4.03
2022-09-06T11:49:56.829Z,3.60
2022-09-06T11:53:15.906Z,3.15
2022-09-06T11:56:17.943Z,3.78
2022-09-06T11:59:14.361Z,2.90
2022-09-06T12:02:10.001Z,2.67
2022-09-06T12:05:30.558Z,2.60
2022-09-06T12:08:35.528Z,2.53
2022-09-06T12:11:37.953Z,2.63
2022-09-06T12:14:36.184Z,2.50
2022-09-06T12:17:27.697Z,2.63
2022-09-06T12:23:46.125Z,2.70
2022-09-06T12:26:55.569Z,3.45
2022-09-06T12:29:59.500Z,3.00
2022-09-06T12:32:52.538Z,3.40
2022-09-06T12:36:18.679Z,3.25
2022-09-06T12:39:13.095Z,2.53
2022-09-06T12:42:06.500Z,2.75
2022-09-06T12:44:56.938Z,2.30
2022-09-06T12:47:49.469Z,2.53
2022-09-06T12:50:41.674Z,2.53
2022-09-06T12:53:31.773Z,2.55
2022-09-06T12:56:24.126Z,2.28
2022-09-06T12:59:20.291Z,2.67
2022-09-06T13:02:20.277Z,2.50
2022-09-06T13:05:14.641Z,2.55
2022-09-06T13:08:05.649Z,2.35
2022-09-06T13:10:55.729Z,2.50
2022-09-06T13:13:51.720Z,2.55
2022-09-06T13:16:48.386Z,2.67
2022-09-06T13:19:40.365Z,2.60
2022-09-06T13:22:43.555Z,2.03
2022-09-06T13:25:34.505Z,2.80
2022-09-06T13:28:29.425Z,2.22
2022-09-06T13:31:22.909Z,2.60
2022-09-06T13:34:12.037Z,2.20
2022-09-06T13:37:05.193Z,2.80
2022-09-06T13:39:54.794Z,2.55
2022-09-06T13:42:45.390Z,2.78
2022-09-06T13:45:34.650Z,2.08
2022-09-06T13:48:29.041Z,3.28
2022-09-06T13:51:19.212Z,2.80
2022-09-06T13:54:10.730Z,2.55
2022-09-06T13:59:52.127Z,2.42
2022-09-06T14:02:42.884Z,2.90
2022-09-06T14:05:32.006Z,4.00
2022-09-06T14:08:21.227Z,3.40
2022-09-06T14:11:10.600Z,2.38
2022-09-06T14:13:59.840Z,4.13
2022-09-06T14:16:50.945Z,3.03
2022-09-06T14:19:41.443Z,2.80
2022-09-06T14:22:30.688Z,2.72
2022-09-06T14:25:19.887Z,1.92
2022-09-06T14:28:09.245Z,3.03
2022-09-06T14:30:58.497Z,2.17
2022-09-06T14:33:50.003Z,5.03
2022-09-06T14:36:40.053Z,2.75
2022-09-06T14:39:29.335Z,2.33
2022-09-06T14:42:20.491Z,3.97
2022-09-06T14:45:10.970Z,2.38
2022-09-06T14:48:00.236Z,2.47
2022-09-06T14:50:50.937Z,4.97
2022-09-06T14:53:41.275Z,5.37
2022-09-06T14:56:31.022Z,2.60
2022-09-06T14:59:20.301Z,2.90
2022-09-06T15:02:09.687Z,2.20
2022-09-06T15:04:58.967Z,2.72
2022-09-06T15:07:49.691Z,4.30
2022-09-06T15:10:39.082Z,2.30
2022-09-06T15:13:29.004Z,4.25
2022-09-06T15:16:18.305Z,2.17
2022-09-06T15:19:08.914Z,2.85
2022-09-06T15:21:58.789Z,4.30
2022-09-06T15:24:50.392Z,3.83
2022-09-06T15:27:39.676Z,3.65
2022-09-06T15:30:28.869Z,3.53
2022-09-06T15:33:19.245Z,4.65
2022-09-06T15:36:10.856Z,3.03
2022-09-06T15:39:02.527Z,3.25
2022-09-06T15:41:53.345Z,3.30
2022-09-06T15:44:42.905Z,2.53
2022-09-06T15:47:35.284Z,2.60
2022-09-06T15:50:47.659Z,3.60
2022-09-06T15:53:34.534Z,3.22
2022-09-06T15:56:23.757Z,2.75
2022-09-06T15:59:14.666Z,3.40
2022-09-06T16:02:04.101Z,5.13
2022-09-06T16:04:53.292Z,5.50
2022-09-06T16:07:44.662Z,3.65
2022-09-06T16:10:38.594Z,4.03
2022-09-06T16:13:33.968Z,2.80
2022-09-06T16:16:24.963Z,2.67
2022-09-06T16:19:17.325Z,2.72
2022-09-06T16:22:06.723Z,1.90
2022-09-06T16:24:55.968Z,2.10
2022-09-06T16:27:45.257Z,1.75
2022-09-06T16:30:34.574Z,1.98
2022-09-06T16:33:25.278Z,5.15
2022-09-06T16:36:14.978Z,3.10
2022-09-06T16:39:05.203Z,3.88
2022-09-06T16:41:54.555Z,3.10
2022-09-06T16:44:43.776Z,2.30
2022-09-06T16:47:33.091Z,1.98
2022-09-06T16:50:23.769Z,3.08
2022-09-06T16:53:13.034Z,2.72
2022-09-06T16:56:04.324Z,2.72
2022-09-06T16:58:55.945Z,3.00
2022-09-06T17:01:45.647Z,2.30
2022-09-06T17:04:36.214Z,2.38
2022-09-06T17:07:27.136Z,2.17
2022-09-06T17:10:16.518Z,2.65
2022-09-06T17:13:05.867Z,2.90
2022-09-06T17:16:12.819Z,3.30
2022-09-06T17:19:03.127Z,4.35
2022-09-06T17:21:52.679Z,4.18
2022-09-06T17:24:43.713Z,5.18
2022-09-06T17:27:35.201Z,3.45
2022-09-06T17:30:24.672Z,3.38
2022-09-06T17:33:16.939Z,3.10
2022-09-06T17:36:14.715Z,4.00
2022-09-06T17:39:08.587Z,5.50
2022-09-06T17:41:59.835Z,5.80
2022-09-06T17:44:49.691Z,3.77
2022-09-06T17:47:39.081Z,3.60
2022-09-06T17:50:31.866Z,2.80
2022-09-06T17:53:21.171Z,2.75
2022-09-06T17:56:13.769Z,2.30
2022-09-06T17:59:08.513Z,2.17
2022-09-06T18:01:57.884Z,2.55
2022-09-06T18:04:47.451Z,3.08
2022-09-06T18:07:36.709Z,4.72
2022-09-06T18:10:26.231Z,6.55
2022-09-06T18:13:15.488Z,8.05
2022-09-06T18:16:07.164Z,6.90
2022-09-06T18:18:58.962Z,4.90
2022-09-06T18:21:49.328Z,4.13
2022-09-06T18:24:38.577Z,3.60
2022-09-06T18:27:28.230Z,3.92
2022-09-06T18:30:17.728Z,6.47
2022-09-06T18:33:09.700Z,4.38
2022-09-06T18:35:58.974Z,4.53
2022-09-06T18:38:48.550Z,5.57
2022-09-06T18:41:55.246Z,5.35
2022-09-06T18:44:44.702Z,3.58
2022-09-06T18:47:33.925Z,3.33
2022-09-06T18:50:24.599Z,3.25
2022-09-06T18:53:14.821Z,3.05
2022-09-06T18:56:04.396Z,3.67
2022-09-06T18:58:58.103Z,3.65
2022-09-06T19:01:47.688Z,4.43
2022-09-06T19:04:37.309Z,5.13
2022-09-06T19:07:29.770Z,6.90
2022-09-06T19:10:22.330Z,6.57
2022-09-06T19:16:12.492Z,7.20
2022-09-06T19:19:05.588Z,7.45
2022-09-06T19:21:55.081Z,9.60
2022-09-06T19:24:50.735Z,6.80
2022-09-06T19:27:48.544Z,6.90
2022-09-06T19:30:43.887Z,7.63
2022-09-06T19:33:36.120Z,9.20
2022-09-06T19:39:21.483Z,8.30
2022-09-06T19:42:16.611Z,9.73
2022-09-06T19:45:09.880Z,8.55
2022-09-06T19:47:59.820Z,8.02
2022-09-06T19:50:49.176Z,6.82
2022-09-06T19:53:42.406Z,6.78
2022-09-06T19:56:35.386Z,6.65
2022-09-06T19:59:29.536Z,5.75
2022-09-06T20:02:19.517Z,8.18
2022-09-06T20:05:18.261Z,6.90
2022-09-06T20:08:07.818Z,7.50
2022-09-06T20:11:00.402Z,7.28
2022-09-06T20:16:43.156Z,6.35
2022-09-06T20:19:32.598Z,5.47
2022-09-06T20:22:22.014Z,5.63
2022-09-06T20:25:14.345Z,6.00
2022-09-06T20:28:05.019Z,6.30
2022-09-06T20:30:54.794Z,9.05
2022-09-06T20:33:52.991Z,7.22
2022-09-06T20:36:42.482Z,7.57
2022-09-06T20:39:34.019Z,7.88
2022-09-06T20:42:23.461Z,8.48
2022-09-06T20:45:12.890Z,7.75
2022-09-06T20:48:02.547Z,6.68
2022-09-06T20:51:04.985Z,7.90
2022-09-06T20:53:57.021Z,6.95
2022-09-06T20:56:46.388Z,7.55
2022-09-06T20:59:35.931Z,7.95
2022-09-06T21:02:25.347Z,8.07
2022-09-06T21:05:15.006Z,8.35
2022-09-06T21:08:05.811Z,10.35
2022-09-06T21:11:00.876Z,10.27
2022-09-06T21:13:51.433Z,11.15
2022-09-06T21:16:41.668Z,12.35
2022-09-06T21:19:31.253Z,13.50
2022-09-06T21:22:20.610Z,13.57
2022-09-06T21:25:12.277Z,13.82
2022-09-06T21:28:01.669Z,14.32
2022-09-06T21:31:03.452Z,16.00
2022-09-06T21:33:55.491Z,15.55
2022-09-06T21:36:44.956Z,14.38
2022-09-06T21:39:34.413Z,15.27
2022-09-06T21:42:31.233Z,14.25
2022-09-06T21:45:20.474Z,12.25
2022-09-06T21:48:09.772Z,9.50
2022-09-06T21:50:59.453Z,9.00
2022-09-06T21:53:51.492Z,9.00
2022-09-06T21:56:41.915Z,8.23
2022-09-06T21:59:32.691Z,6.78
2022-09-06T22:02:23.698Z,6.45
2022-09-06T22:05:12.984Z,6.82
2022-09-06T22:08:02.864Z,5.63
2022-09-06T22:10:52.440Z,7.20
2022-09-06T22:13:42.387Z,5.88
2022-09-06T22:16:35.257Z,5.60
2022-09-06T22:19:24.830Z,5.07
2022-09-06T22:22:14.413Z,5.28
2022-09-06T22:25:03.621Z,4.75
2022-09-06T22:27:52.885Z,5.18
2022-09-06T22:30:42.819Z,5.65
2022-09-06T22:33:33.554Z,4.88
2022-09-06T22:36:24.179Z,5.45
2022-09-06T22:39:13.635Z,6.05
2022-09-06T22:42:02.912Z,5.82
2022-09-06T22:44:52.999Z,5.15
2022-09-06T22:47:42.233Z,5.35
2022-09-06T22:50:32.843Z,5.65
2022-09-06T22:53:22.072Z,5.75
2022-09-06T22:56:11.295Z,5.43
2022-09-06T22:59:01.257Z,6.03
2022-09-06T23:01:50.485Z,5.57
2022-09-06T23:04:39.790Z,5.15
2022-09-06T23:07:30.490Z,5.38
2022-09-06T23:10:19.977Z,5.68
2022-09-06T23:13:10.220Z,5.80
2022-09-06T23:16:05.262Z,5.82
2022-09-06T23:18:55.291Z,5.63
2022-09-06T23:21:44.532Z,5.60
2022-09-06T23:24:35.125Z,5.90
2022-09-06T23:27:24.370Z,5.32
2022-09-06T23:30:13.678Z,5.72
2022-09-06T23:33:02.883Z,6.03
2022-09-06T23:35:55.685Z,5.18
2022-09-06T23:38:45.291Z,6.07
2022-09-06T23:41:36.278Z,6.85
2022-09-06T23:44:25.651Z,5.40
2022-09-06T23:47:14.949Z,5.22
2022-09-06T23:50:04.223Z,6.22
2022-09-06T23:52:53.483Z,4.90
2022-09-06T23:55:43.413Z,5.05
2022-09-06T23:58:34.244Z,4.95
